Euskara    
Meteorología y climatología de Navarra
Datos de la estación - Meteo Navarra

Estación de Bardenas (Loma Negra) GN

Altitud 647 m.


Datos desde el 08/04/2021 hasta el 09/04/2021 en horario solar
Los datos son PROVISIONALES

Anterior Página 1 de 1 Siguiente Descargar: Formato para Excel 2000 o superior   Formato csv   Formato para OpenOffice Calc
Fecha Temperatura Humedad relativa Radiación global Insolación Precipitación Vel. viento 10 m Vel. viento 10 m Dir. viento 10 m
°C % W/m² s l/m² m/s km/h °
08/04/2021 0:00 4.8 83 0.0 0 0.0 7.7 27.6 119
08/04/2021 0:10 4.5 83 0.0 0 0.0 7.5 27.1 119
08/04/2021 0:20 4.2 84 0.0 0 0.0 6.4 22.9 117
08/04/2021 0:30 3.9 87 0.0 0 0.0 6.6 23.7 113
08/04/2021 0:40 3.6 90 0.0 0 0.0 7.3 26.4 111
08/04/2021 0:50 3.3 94 0.0 0 0.0 7.7 27.5 112
08/04/2021 1:00 3.3 98 0.0 0 0.0 7.5 27.1 109
08/04/2021 1:10 3.5 100 0.0 0 0.0 7.4 26.5 106
08/04/2021 1:20 3.8 100 0.0 0 0.0 7.8 28.0 108
08/04/2021 1:30 3.7 98 0.0 0 0.0 7.0 25.2 108
08/04/2021 1:40 3.3 100 0.0 0 0.0 7.3 26.1 115
08/04/2021 1:50 3.1 100 0.0 0 0.0 7.2 25.8 113
08/04/2021 2:00 3.2 100 0.0 0 0.0 7.6 27.2 112
08/04/2021 2:10 3.3 100 0.0 0 0.0 7.3 26.1 121
08/04/2021 2:20 3.2 100 0.0 0 0.0 7.0 25.3 122
08/04/2021 2:30 3.3 100 0.0 0 0.0 7.6 27.2 121
08/04/2021 2:40 3.4 100 0.0 0 0.0 7.3 26.2 121
08/04/2021 2:50 3.5 100 0.0 0 0.0 7.7 27.8 121
08/04/2021 3:00 3.6 100 0.0 0 0.0 7.6 27.4 124
08/04/2021 3:10 3.6 100 0.0 0 0.0 7.7 27.8 126
08/04/2021 3:20 3.5 100 0.0 0 0.0 7.5 27.1 130
08/04/2021 3:30 3.8 100 0.0 0 0.0 7.9 28.6 134
08/04/2021 3:40 3.7 100 0.0 0 0.0 7.7 27.9 133
08/04/2021 3:50 3.6 100 0.0 0 0.0 8.2 29.6 125
08/04/2021 4:00 3.5 100 0.0 0 0.0 8.3 30.0 127
08/04/2021 4:10 3.6 100 0.0 0 0.0 9.0 32.4 124
08/04/2021 4:20 3.7 100 0.0 0 0.0 9.4 33.7 125
08/04/2021 4:30 3.7 100 0.0 0 0.0 8.6 31.0 128
08/04/2021 4:40 3.7 100 0.0 0 0.0 8.4 30.3 125
08/04/2021 4:50 3.8 100 0.0 0 0.0 8.5 30.7 126
08/04/2021 5:00 3.7 100 0.0 0 0.0 8.6 31.1 125
08/04/2021 5:10 3.8 100 0.0 0 0.0 8.1 29.1 124
08/04/2021 5:20 3.7 100 0.0 0 0.0 8.2 29.4 122
08/04/2021 5:30 3.7 100 0.0 0 0.0 8.1 29.0 126
08/04/2021 5:40 4.0 100 0.0 0 0.0 8.1 29.1 130
08/04/2021 5:50 3.9 100 0.0 0 0.0 7.5 26.9 129
08/04/2021 6:00 3.8 100 2.9 0 0.0 7.2 25.9 128
08/04/2021 6:10 4.0 100 24.0 0 0.0 7.7 27.5 129
08/04/2021 6:20 4.3 100 34.0 0 0.0 7.6 27.5 131
08/04/2021 6:30 4.5 100 46.8 0 0.0 7.5 27.1 132
08/04/2021 6:40 4.8 100 60.4 0 0.0 7.2 26.0 136
08/04/2021 6:50 4.9 97 70.7 0 0.0 7.1 25.5 136
08/04/2021 7:00 5.2 95 90.3 0 0.0 7.6 27.4 139
08/04/2021 7:10 5.4 93 104.0 0 0.0 7.4 26.7 138
08/04/2021 7:20 5.8 92 124.0 0 0.0 7.3 26.4 132
08/04/2021 7:30 6.1 90 148.4 0 0.0 7.0 25.1 134
08/04/2021 7:40 6.3 88 179.3 0 0.0 6.9 24.7 136
08/04/2021 7:50 6.5 86 191.2 0 0.0 6.9 24.9 136
08/04/2021 8:00 6.7 86 206.5 0 0.0 6.6 23.6 140
08/04/2021 8:10 7.0 85 224.0 2 0.0 6.4 23.0 135
08/04/2021 8:20 7.5 81 252.6 218 0.0 6.3 22.8 136
08/04/2021 8:30 7.7 81 276.9 494 0.0 6.7 24.2 133
08/04/2021 8:40 8.5 77 344.5 600 0.0 7.0 25.1 127
08/04/2021 8:50 8.9 74 360.6 600 0.0 6.9 24.9 129
08/04/2021 9:00 9.8 72 587.6 600 0.0 6.2 22.4 131
08/04/2021 9:10 11.2 67 678.4 600 0.0 6.5 23.3 128
08/04/2021 9:20 11.6 64 689.0 600 0.0 7.3 26.3 124
08/04/2021 9:30 12.3 62 678.2 600 0.0 6.7 24.0 124
08/04/2021 9:40 12.8 61 693.0 600 0.0 6.5 23.5 121
08/04/2021 9:50 12.5 60 679.3 600 0.0 7.1 25.4 129
08/04/2021 10:00 12.5 61 720.0 600 0.0 6.6 23.9 130
08/04/2021 10:10 13.4 59 752.7 598 0.0 6.4 23.2 123
08/04/2021 10:20 13.5 58 569.4 532 0.0 6.2 22.4 120
08/04/2021 10:30 13.1 59 811.0 600 0.0 6.1 21.9 135
08/04/2021 10:40 14.2 56 741.2 598 0.0 6.0 21.7 122
08/04/2021 10:50 13.9 56 776.6 584 0.0 5.9 21.2 130
08/04/2021 11:00 15.1 55 838.0 600 0.0 6.4 23.0 125
08/04/2021 11:10 13.9 56 797.0 596 0.0 5.6 20.2 139
08/04/2021 11:20 14.8 55 763.4 582 0.0 5.9 21.1 125
08/04/2021 11:30 15.1 53 862.0 600 0.0 5.6 20.2 134
08/04/2021 11:40 15.5 53 849.0 554 0.0 5.6 20.1 130
08/04/2021 11:50 15.4 52 931.0 600 0.0 5.2 18.6 148
08/04/2021 12:00 15.7 52 860.0 600 0.0 5.8 20.7 124
08/04/2021 12:10 17.4 48 939.0 600 0.0 5.0 18.0 120
08/04/2021 12:20 16.5 49 744.7 574 0.0 5.9 21.1 129
08/04/2021 12:30 15.8 50 727.8 544 0.0 5.9 21.1 141
08/04/2021 12:40 16.4 50 926.0 600 0.0 5.7 20.4 136
08/04/2021 12:50 16.6 49 888.0 600 0.0 5.4 19.4 141
08/04/2021 13:00 16.6 49 884.0 600 0.0 4.9 17.5 145
08/04/2021 13:10 16.5 49 854.0 600 0.0 4.6 16.6 149
08/04/2021 13:20 17.4 48 867.0 600 0.0 5.2 18.7 127
08/04/2021 13:30 18.7 44 666.1 600 0.0 4.7 17.0 126
08/04/2021 13:40 17.2 46 856.0 600 0.0 5.8 20.8 138
08/04/2021 13:50 19.0 43 828.0 600 0.0 4.8 17.1 129
08/04/2021 14:00 18.6 44 793.0 600 0.0 4.7 16.8 126
08/04/2021 14:10 18.4 44 758.1 600 0.0 4.8 17.3 149
08/04/2021 14:20 18.2 45 646.8 600 0.0 4.8 17.3 129
08/04/2021 14:30 19.0 43 728.1 600 0.0 5.5 19.7 136
08/04/2021 14:40 19.9 42 705.6 600 0.0 5.1 18.2 127
08/04/2021 14:50 18.3 44 684.5 600 0.0 5.5 19.7 141
08/04/2021 15:00 18.5 44 657.1 600 0.0 4.9 17.7 142
08/04/2021 15:10 18.7 45 617.3 600 0.0 5.1 18.4 129
08/04/2021 15:20 19.0 44 518.6 600 0.0 5.3 19.0 124
08/04/2021 15:30 19.4 43 475.3 600 0.0 5.6 20.1 125
08/04/2021 15:40 19.3 42 554.4 600 0.0 5.4 19.4 125
08/04/2021 15:50 18.6 43 469.0 600 0.0 5.3 19.2 131
08/04/2021 16:00 19.2 42 482.7 600 0.0 5.5 19.8 127
08/04/2021 16:10 18.8 43 448.2 600 0.0 5.6 20.1 133
08/04/2021 16:20 18.4 43 414.2 600 0.0 5.1 18.3 137
08/04/2021 16:30 18.9 43 380.3 600 0.0 5.9 21.1 130
08/04/2021 16:40 17.5 45 342.6 600 0.0 5.6 20.3 143
08/04/2021 16:50 18.3 44 311.7 600 0.0 5.8 20.7 123
08/04/2021 17:00 18.3 44 269.4 600 0.0 5.8 20.9 126
08/04/2021 17:10 17.3 46 135.6 222 0.0 5.3 19.1 119
08/04/2021 17:20 15.7 52 69.2 0 0.0 5.1 18.4 108
08/04/2021 17:30 14.7 55 56.8 0 0.0 5.0 17.8 108
08/04/2021 17:40 14.2 57 53.2 0 0.0 5.6 20.3 109
08/04/2021 17:50 14.0 57 44.9 0 0.0 5.1 18.5 107
08/04/2021 18:00 14.0 58 38.3 0 0.0 6.2 22.3 114
08/04/2021 18:10 13.6 58 27.2 0 0.0 6.5 23.5 113
08/04/2021 18:20 13.3 59 6.0 0 0.0 6.0 21.6 112
08/04/2021 18:30 13.2 60 0.0 0 0.0 6.6 23.6 115
08/04/2021 18:40 12.8 61 0.0 0 0.0 6.7 24.0 116
08/04/2021 18:50 12.4 62 0.0 0 0.0 6.6 23.9 114
08/04/2021 19:00 12.0 63 0.0 0 0.0 6.8 24.5 120
08/04/2021 19:10 12.0 64 0.0 0 0.0 6.8 24.3 124
08/04/2021 19:20 12.0 63 0.0 0 0.0 6.9 24.9 123
08/04/2021 19:30 12.0 62 0.0 0 0.0 7.3 26.1 128
08/04/2021 19:40 12.2 62 0.0 0 0.0 7.2 26.0 129
08/04/2021 19:50 12.0 62 0.0 0 0.0 7.5 27.0 126
08/04/2021 20:00 11.8 62 0.0 0 0.0 7.5 26.9 128
08/04/2021 20:10 11.7 62 0.0 0 0.0 7.4 26.6 127
08/04/2021 20:20 11.7 62 0.0 0 0.0 7.3 26.4 133
08/04/2021 20:30 11.7 62 0.0 0 0.0 7.7 27.8 133
08/04/2021 20:40 11.5 62 0.0 0 0.0 7.4 26.6 130
08/04/2021 20:50 11.4 63 0.0 0 0.0 8.6 31.0 134
08/04/2021 21:00 11.3 63 0.0 0 0.0 8.4 30.2 135
08/04/2021 21:10 11.1 65 0.0 0 0.0 7.7 27.7 136
08/04/2021 21:20 10.9 66 0.0 0 0.0 7.8 28.0 135
08/04/2021 21:30 10.8 66 0.0 0 0.0 7.6 27.4 133
08/04/2021 21:40 10.7 67 0.0 0 0.0 8.3 29.8 145
08/04/2021 21:50 10.7 68 0.0 0 0.0 8.7 31.2 143
08/04/2021 22:00 10.5 68 0.0 0 0.0 8.8 31.7 137
08/04/2021 22:10 10.4 68 0.0 0 0.0 8.1 29.2 139
08/04/2021 22:20 10.3 68 0.0 0 0.0 6.8 24.6 128
08/04/2021 22:30 10.2 70 0.0 0 0.0 6.7 24.0 122
08/04/2021 22:40 9.9 70 0.0 0 0.0 6.2 22.3 125
08/04/2021 22:50 9.6 71 0.0 0 0.0 7.0 25.2 129
08/04/2021 23:00 9.3 72 0.0 0 0.0 6.8 24.6 127
08/04/2021 23:10 9.2 74 0.0 0 0.0 7.0 25.1 132
08/04/2021 23:20 8.8 76 0.0 0 0.0 6.9 24.8 131
08/04/2021 23:30 8.2 78 0.0 0 0.0 6.3 22.6 119
08/04/2021 23:40 7.8 80 0.0 0 0.0 6.0 21.7 116
08/04/2021 23:50 7.3 83 0.0 0 0.0 5.8 20.9 125
Anterior Página 1 de 1 Siguiente

NOTA: Tipo de datos según el color:
   - Valores diarios o 10 minutos correctos
   - Valores diarios calculados a partir de un número de datos 10 minutos menor que 144 y mayor que 120, o de un número de datos semihorarios menor que 48 y mayor que 40 (caso de las estaciones de INTIA Y Ministerio)
   - Valores diez minutos estimados


Contacto        Enlaces        Aviso legal